Farwell, Nebraska
Current Conditions -  °F | °C
As of 10:53 AM on Friday 31 Oct 2014 (Local Time) from KGRI Reporting Station
Clear Clear  
Wind Chill: 25°   Ceiling: Unl
Heat Index: 33°   Visibility: 10mi
Dew Point: 19°   Wind: 9mph
Humidity: 56%   Direction: 10°N
Pressure: 30.59"   Gusts: NA
Location:  41.22°N, 98.63°W
Report Text: KGRI 311553Z 01008KT 360V070 10SM CLR 01/M07 A3059 RMK AO2 SLP375 T00061072
Loading
Personal Weather Stations






























Interactive Weather Map
Tropical Storm Tracking
New forecast layout! Learn more

10-Day Weather Forecast

Advertisements
Track Severe Weather on mobile